createdAt,value
2022-11-05T00:00:07.216Z,93.69
2022-11-05T00:00:57.063Z,93.88
2022-11-05T00:01:46.840Z,93.67
2022-11-05T00:02:36.522Z,93.40
2022-11-05T00:03:26.290Z,93.76
2022-11-05T00:04:16.018Z,93.32
2022-11-05T00:05:05.858Z,93.60
2022-11-05T00:05:55.610Z,93.52
2022-11-05T00:06:45.781Z,92.88
2022-11-05T00:07:42.086Z,93.11
2022-11-05T00:08:32.406Z,92.77
2022-11-05T00:09:22.566Z,93.17
2022-11-05T00:10:01.508Z,93.12
2022-11-05T00:10:35.694Z,92.80
2022-11-05T00:11:07.210Z,92.60
2022-11-05T00:11:57.063Z,92.80
2022-11-05T00:12:46.919Z,93.07
2022-11-05T00:13:36.934Z,92.55
2022-11-05T00:14:26.837Z,92.75
2022-11-05T00:15:17.305Z,92.53
2022-11-05T00:16:06.993Z,92.35
2022-11-05T00:16:44.240Z,92.34
2022-11-05T00:17:15.534Z,92.48
2022-11-05T00:17:46.820Z,92.10
2022-11-05T00:18:18.345Z,92.22
2022-11-05T00:19:06.302Z,92.29
2022-11-05T00:19:37.695Z,91.87
2022-11-05T00:20:11.174Z,92.01
2022-11-05T00:20:42.531Z,91.86
2022-11-05T00:21:32.587Z,91.73
2022-11-05T00:22:22.311Z,92.01
2022-11-05T00:23:20.250Z,91.59
2022-11-05T00:24:09.968Z,91.84
2022-11-05T00:24:59.812Z,92.06
2022-11-05T00:25:31.173Z,92.04
2022-11-05T00:26:04.874Z,92.05
2022-11-05T00:26:36.192Z,91.75
2022-11-05T00:27:08.160Z,91.44
2022-11-05T00:27:43.238Z,92.03
2022-11-05T00:28:14.726Z,91.55
2022-11-05T00:28:47.123Z,91.74
2022-11-05T00:29:18.423Z,91.08
2022-11-05T00:29:49.763Z,91.16
2022-11-05T00:30:26.097Z,91.69
2022-11-05T00:31:06.423Z,91.70
2022-11-05T00:31:38.876Z,90.96
2022-11-05T00:32:10.378Z,91.63
2022-11-05T00:32:41.691Z,91.24
2022-11-05T00:33:13.132Z,91.30
2022-11-05T00:33:44.600Z,91.37
2022-11-05T00:34:15.903Z,90.95
2022-11-05T00:34:47.244Z,91.63
2022-11-05T00:35:22.021Z,90.99
2022-11-05T00:35:53.324Z,91.19
2022-11-05T00:36:24.646Z,91.01
2022-11-05T00:36:56.204Z,90.99
2022-11-05T00:37:28.528Z,91.62
2022-11-05T00:37:59.839Z,90.80
2022-11-05T00:38:31.427Z,91.22
2022-11-05T00:39:02.807Z,91.07
2022-11-05T00:39:34.131Z,91.05
2022-11-05T00:40:06.548Z,90.97
2022-11-05T00:40:38.136Z,90.92
2022-11-05T00:41:09.431Z,91.04
2022-11-05T00:41:40.771Z,91.23
2022-11-05T00:42:30.969Z,90.75
2022-11-05T00:43:20.898Z,90.92
2022-11-05T00:44:10.922Z,91.29
2022-11-05T00:45:05.155Z,91.18
2022-11-05T00:45:37.678Z,91.41
2022-11-05T00:46:09.254Z,91.48
2022-11-05T00:46:40.551Z,91.43
2022-11-05T00:47:30.668Z,91.15
2022-11-05T00:48:20.746Z,91.26
2022-11-05T00:49:10.883Z,91.00
2022-11-05T00:49:42.168Z,91.28
2022-11-05T00:50:14.081Z,91.11
2022-11-05T00:50:45.897Z,91.38
2022-11-05T00:51:17.203Z,91.26
2022-11-05T00:52:08.480Z,91.66
2022-11-05T00:53:00.240Z,91.36
2022-11-05T00:53:31.529Z,91.38
2022-11-05T00:54:03.089Z,91.63
2022-11-05T00:54:34.394Z,91.34
2022-11-05T00:55:05.879Z,91.61
2022-11-05T00:55:39.798Z,91.60
2022-11-05T00:56:11.491Z,91.02
2022-11-05T00:56:42.796Z,90.94
2022-11-05T00:57:14.132Z,91.38
2022-11-05T00:57:45.514Z,91.12
2022-11-05T00:58:19.901Z,90.49
2022-11-05T00:58:51.221Z,91.50
2022-11-05T00:59:22.745Z,91.64
2022-11-05T00:59:54.073Z,91.06
2022-11-05T01:00:28.498Z,91.50
2022-11-05T01:01:01.861Z,91.34
2022-11-05T01:01:33.285Z,91.74
2022-11-05T01:02:04.788Z,91.17
2022-11-05T01:02:36.342Z,91.72
2022-11-05T01:03:11.983Z,91.50
2022-11-05T01:03:48.825Z,91.60
2022-11-05T01:04:22.783Z,92.08
2022-11-05T01:04:54.083Z,91.66
2022-11-05T01:05:25.771Z,91.63
2022-11-05T01:06:08.820Z,91.36
2022-11-05T01:06:40.154Z,91.50
2022-11-05T01:07:11.457Z,91.37
2022-11-05T01:07:42.833Z,91.36
2022-11-05T01:08:15.894Z,91.36
2022-11-05T01:08:47.464Z,91.32
2022-11-05T01:09:18.846Z,91.47
2022-11-05T01:09:50.173Z,91.36
2022-11-05T01:10:21.932Z,91.60
2022-11-05T01:10:58.240Z,91.62
2022-11-05T01:11:37.258Z,91.21
2022-11-05T01:12:08.743Z,91.41
2022-11-05T01:12:40.067Z,91.73
2022-11-05T01:13:13.422Z,91.58
2022-11-05T01:13:44.921Z,91.91
2022-11-05T01:14:16.302Z,91.96
2022-11-05T01:14:47.618Z,91.49
2022-11-05T01:15:20.255Z,91.47
2022-11-05T01:15:52.046Z,91.96
2022-11-05T01:16:23.349Z,91.56
2022-11-05T01:16:54.819Z,91.41
2022-11-05T01:17:26.201Z,91.48
2022-11-05T01:17:57.534Z,91.81
2022-11-05T01:18:28.860Z,91.61
2022-11-05T01:19:01.805Z,91.83
2022-11-05T01:19:33.202Z,91.63
2022-11-05T01:20:05.049Z,91.38
2022-11-05T01:20:36.507Z,91.89
2022-11-05T01:21:15.673Z,91.78
2022-11-05T01:21:47.171Z,91.89
2022-11-05T01:22:18.530Z,91.11
2022-11-05T01:22:49.853Z,91.51
2022-11-05T01:23:21.487Z,91.46
2022-11-05T01:23:53.654Z,91.65
2022-11-05T01:24:25.068Z,90.98
2022-11-05T01:24:56.425Z,91.32
2022-11-05T01:25:27.949Z,91.37
2022-11-05T01:25:59.265Z,91.69
2022-11-05T01:26:31.686Z,91.14
2022-11-05T01:27:03.021Z,91.28
2022-11-05T01:27:36.588Z,91.12
2022-11-05T01:28:09.545Z,91.31
2022-11-05T01:28:40.997Z,91.26
2022-11-05T01:29:12.462Z,91.25
2022-11-05T01:29:43.874Z,91.70
2022-11-05T01:30:15.974Z,91.46
2022-11-05T01:30:55.216Z,91.53
2022-11-05T01:31:26.726Z,91.36
2022-11-05T01:31:58.259Z,91.08
2022-11-05T01:32:29.828Z,91.01
2022-11-05T01:33:01.265Z,91.16
2022-11-05T01:33:32.588Z,91.14
2022-11-05T01:34:04.163Z,90.92
2022-11-05T01:34:35.465Z,91.29
2022-11-05T01:35:10.255Z,91.24
2022-11-05T01:35:42.358Z,91.28
2022-11-05T01:36:14.239Z,90.90
2022-11-05T01:36:45.777Z,91.03
2022-11-05T01:37:17.090Z,91.17
2022-11-05T01:37:48.435Z,90.88
2022-11-05T01:38:19.764Z,91.05
2022-11-05T01:38:51.093Z,91.15
2022-11-05T01:39:22.633Z,91.11
2022-11-05T01:39:53.921Z,91.24
2022-11-05T01:40:25.792Z,91.33
2022-11-05T01:40:57.118Z,90.84
2022-11-05T01:41:29.089Z,91.08
2022-11-05T01:42:00.479Z,91.12
2022-11-05T01:42:32.894Z,91.45
2022-11-05T01:43:10.392Z,91.51
2022-11-05T01:43:47.961Z,90.89
2022-11-05T01:44:56.576Z,91.00
2022-11-05T01:45:28.540Z,91.38
2022-11-05T01:46:00.203Z,91.12
2022-11-05T01:46:35.908Z,91.07
2022-11-05T01:47:17.963Z,91.30
2022-11-05T01:48:06.747Z,91.53
2022-11-05T01:48:38.356Z,91.64
2022-11-05T01:49:33.186Z,91.39
2022-11-05T01:50:22.384Z,91.60
2022-11-05T01:50:59.348Z,91.72
2022-11-05T01:51:31.102Z,91.57
2022-11-05T01:52:04.570Z,91.63
2022-11-05T01:52:36.094Z,91.75
2022-11-05T01:53:22.855Z,91.44
2022-11-05T01:54:16.457Z,91.58
2022-11-05T01:54:48.012Z,91.29
2022-11-05T01:55:25.430Z,91.30
2022-11-05T01:56:11.779Z,91.46
2022-11-05T01:56:47.898Z,91.47
2022-11-05T01:57:20.351Z,91.39
2022-11-05T01:57:54.752Z,91.20
2022-11-05T01:58:30.667Z,91.42
2022-11-05T01:59:04.757Z,91.48
2022-11-05T01:59:48.431Z,91.87
2022-11-05T02:00:20.421Z,91.78
2022-11-05T02:00:52.848Z,91.36
2022-11-05T02:01:24.876Z,91.77
2022-11-05T02:01:56.430Z,91.44
2022-11-05T02:02:29.759Z,91.24
2022-11-05T02:03:01.689Z,91.45
2022-11-05T02:03:33.198Z,91.00
2022-11-05T02:04:09.971Z,91.33
2022-11-05T02:04:54.684Z,91.21
2022-11-05T02:05:26.464Z,90.94
2022-11-05T02:06:00.789Z,91.35
2022-11-05T02:06:37.059Z,91.35
2022-11-05T02:07:10.653Z,91.35
2022-11-05T02:07:45.514Z,91.32
2022-11-05T02:08:29.069Z,91.51
2022-11-05T02:09:11.246Z,91.36
2022-11-05T02:09:49.490Z,91.37
2022-11-05T02:10:21.414Z,91.48
2022-11-05T02:10:52.958Z,91.54
2022-11-05T02:11:24.767Z,91.14
2022-11-05T02:11:56.236Z,91.74
2022-11-05T02:12:29.146Z,91.97
2022-11-05T02:13:00.675Z,91.61
2022-11-05T02:13:32.034Z,91.80
2022-11-05T02:14:03.456Z,91.68
2022-11-05T02:14:34.954Z,91.96
2022-11-05T02:15:07.046Z,91.79
2022-11-05T02:15:51.723Z,91.93
2022-11-05T02:16:41.074Z,92.02
2022-11-05T02:17:36.409Z,91.93
2022-11-05T02:18:44.704Z,91.68
2022-11-05T02:19:52.726Z,91.90
2022-11-05T02:20:34.562Z,92.21
2022-11-05T02:21:43.567Z,91.80
2022-11-05T02:22:48.805Z,92.37
2022-11-05T02:23:38.658Z,92.56
2022-11-05T02:24:20.490Z,92.28
2022-11-05T02:25:42.023Z,92.56
2022-11-05T02:26:29.832Z,92.43
2022-11-05T02:27:18.915Z,92.43
2022-11-05T02:28:26.534Z,92.24
2022-11-05T02:29:25.673Z,92.54
2022-11-05T02:30:34.750Z,92.70
2022-11-05T02:31:35.962Z,92.67
2022-11-05T02:32:29.018Z,92.45
2022-11-05T02:33:19.058Z,92.68
2022-11-05T02:34:18.751Z,93.01
2022-11-05T02:35:02.061Z,92.87
2022-11-05T02:35:39.010Z,92.41
2022-11-05T02:36:24.213Z,92.92
2022-11-05T02:37:10.306Z,92.72
2022-11-05T02:37:49.415Z,92.78
2022-11-05T02:38:30.617Z,92.50
2022-11-05T02:39:11.983Z,92.84
2022-11-05T02:39:59.538Z,92.86
2022-11-05T02:40:39.511Z,92.45
2022-11-05T02:41:22.674Z,92.32
2022-11-05T02:43:33.486Z,92.65
2022-11-05T02:44:23.132Z,92.98
2022-11-05T02:45:19.857Z,92.99
2022-11-05T02:46:03.906Z,92.53
2022-11-05T02:46:46.649Z,92.36
2022-11-05T02:47:44.584Z,92.75
2022-11-05T02:48:26.089Z,92.60
2022-11-05T02:49:26.302Z,92.67
2022-11-05T02:50:14.349Z,92.24
2022-11-05T02:51:12.994Z,92.29
2022-11-05T02:51:55.519Z,92.38
2022-11-05T02:52:41.463Z,92.22
2022-11-05T02:53:19.658Z,92.38
2022-11-05T02:53:58.219Z,92.32
2022-11-05T02:54:38.625Z,92.59
2022-11-05T02:55:27.464Z,92.94
2022-11-05T02:56:20.039Z,92.67
2022-11-05T02:56:55.416Z,92.47
2022-11-05T02:57:29.303Z,92.83
2022-11-05T02:58:03.465Z,92.80
2022-11-05T02:58:35.668Z,92.65
2022-11-05T02:59:07.037Z,92.46
2022-11-05T02:59:38.377Z,92.05
2022-11-05T03:00:39.126Z,92.46
2022-11-05T03:01:13.191Z,92.17
2022-11-05T03:01:47.016Z,92.54
2022-11-05T03:02:18.866Z,91.97
2022-11-05T03:02:50.439Z,91.91
2022-11-05T03:03:42.915Z,91.99
2022-11-05T03:04:17.114Z,92.06
2022-11-05T03:04:48.475Z,91.63
2022-11-05T03:05:29.318Z,92.12
2022-11-05T03:06:22.070Z,91.83
2022-11-05T03:07:16.445Z,91.43
2022-11-05T03:07:59.000Z,91.81
2022-11-05T03:08:55.272Z,91.83
2022-11-05T03:09:47.835Z,91.90
2022-11-05T03:10:40.247Z,92.16
2022-11-05T03:11:21.327Z,91.85
2022-11-05T03:12:05.042Z,92.10
2022-11-05T03:12:39.147Z,92.03
2022-11-05T03:13:28.723Z,92.33
2022-11-05T03:14:11.572Z,91.59
2022-11-05T03:14:58.100Z,92.00
2022-11-05T03:15:56.207Z,92.01
2022-11-05T03:16:39.434Z,91.88
2022-11-05T03:17:25.818Z,92.07
2022-11-05T03:18:08.889Z,92.10
2022-11-05T03:18:47.607Z,92.30
2022-11-05T03:19:26.510Z,91.96
2022-11-05T03:20:21.077Z,92.31
2022-11-05T03:21:09.233Z,92.11
2022-11-05T03:21:49.322Z,92.04
2022-11-05T03:22:25.654Z,91.90
2022-11-05T03:23:19.222Z,92.01
2022-11-05T03:24:03.356Z,92.20
2022-11-05T03:24:38.871Z,92.20
2022-11-05T03:25:19.367Z,92.04
2022-11-05T03:26:01.760Z,92.20
2022-11-05T03:26:44.173Z,92.30
2022-11-05T03:27:19.898Z,91.93
2022-11-05T03:27:57.587Z,92.42
2022-11-05T03:28:32.886Z,92.21
2022-11-05T03:29:09.491Z,91.62
2022-11-05T03:29:49.599Z,92.18
2022-11-05T03:30:21.274Z,92.02
2022-11-05T03:30:56.382Z,91.96
2022-11-05T03:31:30.088Z,91.65
2022-11-05T03:32:04.534Z,92.31
2022-11-05T03:32:41.771Z,92.09
2022-11-05T03:33:20.846Z,92.02
2022-11-05T03:33:54.921Z,91.85
2022-11-05T03:34:31.765Z,92.32
2022-11-05T03:35:10.612Z,91.95
2022-11-05T03:35:47.494Z,92.45
2022-11-05T03:36:32.351Z,92.32
2022-11-05T03:37:06.319Z,92.24
2022-11-05T03:37:40.450Z,91.71
2022-11-05T03:38:22.021Z,92.48
2022-11-05T03:39:14.624Z,92.12
2022-11-05T03:39:50.496Z,92.12
2022-11-05T03:40:24.950Z,92.09
2022-11-05T03:41:00.445Z,92.68
2022-11-05T03:41:34.247Z,92.60
2022-11-05T03:42:08.457Z,92.74
2022-11-05T03:42:44.663Z,92.10
2022-11-05T03:43:18.036Z,92.42
2022-11-05T03:43:54.220Z,92.27
2022-11-05T03:44:30.897Z,92.08
2022-11-05T03:45:08.753Z,92.29
2022-11-05T03:46:02.893Z,92.05
2022-11-05T03:46:39.188Z,92.50
2022-11-05T03:47:16.596Z,92.53
2022-11-05T03:47:51.683Z,92.18
2022-11-05T03:48:26.914Z,92.27
2022-11-05T03:49:01.557Z,92.35
2022-11-05T03:49:40.308Z,92.53
2022-11-05T03:50:23.668Z,92.20
2022-11-05T03:51:11.585Z,92.00
2022-11-05T03:51:55.725Z,92.09
2022-11-05T03:52:33.504Z,92.13
2022-11-05T03:53:14.296Z,92.35
2022-11-05T03:53:52.848Z,92.42
2022-11-05T03:54:24.459Z,92.26
2022-11-05T03:54:56.015Z,92.54
2022-11-05T03:55:34.941Z,92.04
2022-11-05T03:56:12.724Z,92.30
2022-11-05T03:56:59.262Z,92.06
2022-11-05T03:57:34.330Z,91.78
2022-11-05T03:58:06.131Z,92.11
2022-11-05T03:58:42.901Z,92.41
2022-11-05T03:59:14.480Z,92.18
2022-11-05T03:59:48.380Z,92.23
2022-11-05T04:00:21.886Z,92.15
2022-11-05T04:00:53.400Z,92.54
2022-11-05T04:01:25.555Z,92.28
2022-11-05T04:01:57.326Z,92.53
2022-11-05T04:02:28.909Z,92.17
2022-11-05T04:03:00.449Z,92.48
2022-11-05T04:03:36.552Z,92.67
2022-11-05T04:04:08.932Z,92.85
2022-11-05T04:04:40.774Z,92.22
2022-11-05T04:05:12.276Z,92.70
2022-11-05T04:05:43.996Z,92.30
2022-11-05T04:06:34.013Z,92.69
2022-11-05T04:07:24.776Z,92.69
2022-11-05T04:08:14.837Z,92.75
2022-11-05T04:09:04.842Z,92.80
2022-11-05T04:09:54.721Z,92.77
2022-11-05T04:10:45.070Z,92.40
2022-11-05T04:11:35.308Z,92.46
2022-11-05T04:12:25.228Z,92.46
2022-11-05T04:13:14.986Z,92.51
2022-11-05T04:13:46.274Z,92.43
2022-11-05T04:14:17.603Z,92.63
2022-11-05T04:14:48.935Z,92.34
2022-11-05T04:15:20.247Z,92.48
2022-11-05T04:16:11.442Z,92.32
2022-11-05T04:17:01.294Z,92.54
2022-11-05T04:17:32.761Z,92.27
2022-11-05T04:18:04.075Z,91.93
2022-11-05T04:18:36.580Z,92.22
2022-11-05T04:19:07.894Z,92.08
2022-11-05T04:20:00.077Z,92.28
2022-11-05T04:20:50.123Z,92.24
2022-11-05T04:21:56.903Z,92.55
2022-11-05T04:22:49.330Z,92.38
2022-11-05T04:23:39.537Z,92.56
2022-11-05T04:24:10.963Z,92.28
2022-11-05T04:24:42.262Z,92.75
2022-11-05T04:25:15.274Z,92.60
2022-11-05T04:25:46.772Z,92.57
2022-11-05T04:26:23.082Z,92.97
2022-11-05T04:26:54.415Z,92.44
2022-11-05T04:27:25.726Z,92.75
2022-11-05T04:28:03.012Z,92.81
2022-11-05T04:28:52.964Z,92.75
2022-11-05T04:29:42.837Z,93.09
2022-11-05T04:30:18.586Z,92.52
2022-11-05T04:30:50.120Z,92.66
2022-11-05T04:31:21.435Z,92.55
2022-11-05T04:31:53.239Z,92.92
2022-11-05T04:32:24.589Z,92.75
2022-11-05T04:33:01.515Z,92.84
2022-11-05T04:33:32.830Z,92.89
2022-11-05T04:34:04.341Z,93.03
2022-11-05T04:34:35.647Z,92.98
2022-11-05T04:35:07.057Z,92.90
2022-11-05T04:35:41.089Z,93.11
2022-11-05T04:36:12.465Z,92.88
2022-11-05T04:36:43.773Z,93.37
2022-11-05T04:37:15.122Z,93.10
2022-11-05T04:37:46.605Z,93.53
2022-11-05T04:38:19.711Z,93.58
2022-11-05T04:38:51.079Z,93.50
2022-11-05T04:39:22.557Z,93.17
2022-11-05T04:39:54.041Z,93.77
2022-11-05T04:40:25.550Z,93.58
2022-11-05T04:41:13.003Z,93.61
2022-11-05T04:41:47.753Z,93.58
2022-11-05T04:42:19.168Z,93.43
2022-11-05T04:42:50.588Z,93.38
2022-11-05T04:43:22.406Z,93.49
2022-11-05T04:43:54.065Z,93.46
2022-11-05T04:44:25.430Z,93.69
2022-11-05T04:44:56.908Z,92.99
2022-11-05T04:45:30.658Z,93.04
2022-11-05T04:46:01.967Z,93.57
2022-11-05T04:46:33.303Z,93.37
2022-11-05T04:47:04.674Z,93.36
2022-11-05T04:47:36.009Z,93.23
2022-11-05T04:48:07.413Z,92.95
2022-11-05T04:48:39.964Z,93.10
2022-11-05T04:49:11.382Z,92.91
2022-11-05T04:49:42.743Z,93.59
2022-11-05T04:50:14.288Z,92.79
2022-11-05T04:50:45.625Z,92.60
2022-11-05T04:51:17.204Z,93.18
2022-11-05T04:51:48.553Z,92.45
2022-11-05T04:52:19.944Z,92.98
2022-11-05T04:52:51.488Z,93.05
2022-11-05T04:53:22.814Z,92.95
2022-11-05T04:53:54.357Z,93.03
2022-11-05T04:54:25.760Z,92.46
2022-11-05T04:54:57.205Z,92.99
2022-11-05T04:55:28.828Z,93.07
2022-11-05T04:56:18.650Z,92.43
2022-11-05T04:56:50.123Z,92.65
2022-11-05T04:57:21.513Z,92.60
2022-11-05T04:57:54.347Z,92.72
2022-11-05T04:58:25.703Z,92.47
2022-11-05T04:58:57.027Z,92.65
2022-11-05T04:59:28.343Z,92.58
2022-11-05T04:59:59.725Z,92.97
2022-11-05T05:00:31.076Z,92.81
2022-11-05T05:01:02.499Z,92.71
2022-11-05T05:01:34.047Z,92.62
2022-11-05T05:02:05.580Z,92.79
2022-11-05T05:02:37.425Z,93.16
2022-11-05T05:03:09.221Z,92.78
2022-11-05T05:03:41.336Z,93.31
2022-11-05T05:04:12.699Z,93.28
2022-11-05T05:04:44.843Z,93.45
2022-11-05T05:05:16.235Z,93.49
2022-11-05T05:05:47.536Z,93.69
2022-11-05T05:06:18.990Z,94.00
2022-11-05T05:06:50.298Z,94.66
2022-11-05T05:07:21.680Z,94.36
2022-11-05T05:07:53.035Z,94.08
2022-11-05T05:08:24.534Z,94.52
2022-11-05T05:08:55.851Z,94.20
2022-11-05T05:09:27.239Z,94.79
2022-11-05T05:09:58.608Z,94.77
2022-11-05T05:10:30.139Z,95.23
2022-11-05T05:11:06.454Z,94.81
2022-11-05T05:11:37.763Z,94.92
2022-11-05T05:12:09.080Z,94.39
2022-11-05T05:12:40.401Z,94.79
2022-11-05T05:13:12.075Z,94.55
2022-11-05T05:13:43.650Z,94.67
2022-11-05T05:14:15.000Z,94.54
2022-11-05T05:14:48.173Z,94.41
2022-11-05T05:15:19.525Z,94.40
2022-11-05T05:15:50.822Z,95.10
2022-11-05T05:16:24.994Z,94.86
2022-11-05T05:16:56.306Z,94.82
2022-11-05T05:17:27.888Z,94.61
2022-11-05T05:17:59.596Z,94.61
2022-11-05T05:18:30.891Z,94.59
2022-11-05T05:19:02.225Z,94.67
2022-11-05T05:19:53.543Z,94.55
2022-11-05T05:20:43.432Z,94.91
2022-11-05T05:21:35.262Z,94.86
2022-11-05T05:22:06.546Z,94.91
2022-11-05T05:22:37.998Z,94.33
2022-11-05T05:23:10.538Z,94.72
2022-11-05T05:23:42.415Z,94.68
2022-11-05T05:24:16.559Z,94.93
2022-11-05T05:24:52.609Z,94.81
2022-11-05T05:25:24.409Z,94.90
2022-11-05T05:25:58.795Z,95.47
2022-11-05T05:26:30.313Z,95.06
2022-11-05T05:27:01.644Z,95.33
2022-11-05T05:27:33.050Z,94.98
2022-11-05T05:28:04.464Z,95.41
2022-11-05T05:28:36.057Z,95.63
2022-11-05T05:29:08.955Z,95.49
2022-11-05T05:29:40.281Z,95.12
2022-11-05T05:30:11.881Z,95.10
2022-11-05T05:30:43.212Z,95.28
2022-11-05T05:31:15.030Z,95.21
2022-11-05T05:31:46.361Z,95.20
2022-11-05T05:32:17.690Z,95.27
2022-11-05T05:32:49.278Z,94.65
2022-11-05T05:33:20.581Z,95.12
2022-11-05T05:33:55.592Z,95.47
2022-11-05T05:34:26.912Z,95.28
2022-11-05T05:34:58.224Z,94.98
2022-11-05T05:35:29.946Z,95.04
2022-11-05T05:36:04.665Z,95.08
2022-11-05T05:36:40.199Z,95.57
2022-11-05T05:37:30.014Z,94.94
2022-11-05T05:38:01.383Z,95.45
2022-11-05T05:38:32.683Z,95.20
2022-11-05T05:39:08.502Z,95.28
2022-11-05T05:39:39.814Z,94.80
2022-11-05T05:40:11.547Z,95.26
2022-11-05T05:40:43.008Z,95.02
2022-11-05T05:41:33.352Z,95.17
2022-11-05T05:42:04.834Z,95.31
2022-11-05T05:42:41.741Z,95.08
2022-11-05T05:43:14.312Z,94.68
2022-11-05T05:43:45.879Z,95.18
2022-11-05T05:44:17.207Z,95.05
2022-11-05T05:44:48.771Z,94.81
2022-11-05T05:45:20.083Z,95.07
2022-11-05T05:45:51.403Z,94.73
2022-11-05T05:46:22.808Z,94.87
2022-11-05T05:46:55.399Z,94.73
2022-11-05T05:47:27.105Z,94.88
2022-11-05T05:47:58.465Z,95.35
2022-11-05T05:48:29.948Z,95.07
2022-11-05T05:49:01.338Z,95.18
2022-11-05T05:49:32.689Z,94.93
2022-11-05T05:50:04.549Z,95.35
2022-11-05T05:50:36.092Z,95.09
2022-11-05T05:51:10.421Z,94.83
2022-11-05T05:51:41.913Z,94.85
2022-11-05T05:52:13.585Z,94.78
2022-11-05T05:52:44.893Z,95.38
2022-11-05T05:53:16.245Z,95.14
2022-11-05T05:53:47.644Z,95.15
2022-11-05T05:54:18.961Z,94.89
2022-11-05T05:54:50.274Z,95.16
2022-11-05T05:55:21.687Z,94.87
2022-11-05T05:55:54.845Z,95.22
2022-11-05T05:56:26.395Z,94.97
2022-11-05T05:56:57.949Z,95.13
2022-11-05T05:57:29.281Z,95.26
2022-11-05T05:58:00.598Z,94.75
2022-11-05T05:58:34.734Z,94.85
2022-11-05T05:59:06.642Z,94.99
2022-11-05T05:59:37.969Z,95.40
2022-11-05T06:00:09.957Z,94.80
2022-11-05T06:00:41.260Z,94.71
2022-11-05T06:01:18.990Z,94.70
2022-11-05T06:02:09.391Z,95.03
2022-11-05T06:02:41.247Z,94.77
2022-11-05T06:03:12.959Z,94.99
2022-11-05T06:03:44.549Z,94.95
2022-11-05T06:04:16.107Z,94.77
2022-11-05T06:04:47.408Z,94.73
2022-11-05T06:05:18.731Z,95.01
2022-11-05T06:05:50.031Z,94.85
2022-11-05T06:06:21.473Z,94.89
2022-11-05T06:06:52.900Z,95.12
2022-11-05T06:07:24.211Z,95.08
2022-11-05T06:07:56.988Z,95.25
2022-11-05T06:08:29.403Z,95.12
2022-11-05T06:09:00.983Z,95.25
2022-11-05T06:09:32.295Z,95.06
2022-11-05T06:10:04.215Z,94.72
2022-11-05T06:10:35.729Z,94.93
2022-11-05T06:11:07.955Z,94.65
2022-11-05T06:11:39.600Z,94.93
2022-11-05T06:12:10.914Z,94.65
2022-11-05T06:12:42.210Z,94.71
2022-11-05T06:13:13.910Z,95.01
2022-11-05T06:13:45.332Z,95.10
2022-11-05T06:14:16.716Z,94.99
2022-11-05T06:14:48.163Z,95.03
2022-11-05T06:15:20.246Z,94.65
2022-11-05T06:15:51.864Z,95.33
2022-11-05T06:16:23.179Z,94.75
2022-11-05T06:16:54.501Z,95.19
2022-11-05T06:17:25.934Z,94.86
2022-11-05T06:17:57.419Z,94.66
2022-11-05T06:18:30.315Z,94.94
2022-11-05T06:19:02.629Z,95.07
2022-11-05T06:19:33.992Z,94.75
2022-11-05T06:20:05.895Z,94.79
2022-11-05T06:20:37.218Z,94.54
2022-11-05T06:21:11.424Z,94.73
2022-11-05T06:21:42.748Z,94.78
2022-11-05T06:22:14.097Z,94.64
2022-11-05T06:22:54.641Z,94.76
2022-11-05T06:23:26.085Z,94.47
2022-11-05T06:23:57.413Z,94.41
2022-11-05T06:24:28.792Z,94.73
2022-11-05T06:25:00.126Z,94.56
2022-11-05T06:25:31.451Z,94.81
2022-11-05T06:26:04.665Z,94.44
2022-11-05T06:26:42.508Z,94.59
2022-11-05T06:27:13.851Z,94.22
2022-11-05T06:27:45.142Z,94.17
2022-11-05T06:28:16.448Z,94.57
2022-11-05T06:28:47.960Z,94.46
2022-11-05T06:29:19.475Z,94.81
2022-11-05T06:29:50.771Z,94.37
2022-11-05T06:30:23.473Z,94.69
2022-11-05T06:30:55.327Z,94.59
2022-11-05T06:31:26.685Z,94.33
2022-11-05T06:31:57.994Z,94.18
2022-11-05T06:32:30.609Z,94.38
2022-11-05T06:33:03.925Z,94.29
2022-11-05T06:33:35.504Z,94.78
2022-11-05T06:34:06.857Z,94.20
2022-11-05T06:34:38.181Z,94.42
2022-11-05T06:35:09.726Z,94.56
2022-11-05T06:35:41.053Z,94.73
2022-11-05T06:36:15.732Z,94.26
2022-11-05T06:36:47.112Z,94.64
2022-11-05T06:37:18.422Z,94.56
2022-11-05T06:37:49.939Z,94.78
2022-11-05T06:38:21.407Z,94.55
2022-11-05T06:38:52.743Z,94.38
2022-11-05T06:39:24.111Z,94.40
2022-11-05T06:39:57.274Z,94.56
2022-11-05T06:40:29.347Z,94.75
2022-11-05T06:41:07.192Z,94.68
2022-11-05T06:42:04.168Z,94.92
2022-11-05T06:42:31.640Z,94.92
2022-11-05T06:43:03.138Z,94.92
2022-11-05T06:43:34.692Z,94.89
2022-11-05T06:44:06.024Z,95.14
2022-11-05T06:44:37.323Z,94.99
2022-11-05T06:45:09.166Z,94.82
2022-11-05T06:45:40.771Z,94.98
2022-11-05T06:46:12.401Z,94.83
2022-11-05T06:46:48.372Z,95.16
2022-11-05T06:47:20.081Z,94.93
2022-11-05T06:47:58.398Z,94.93
2022-11-05T06:48:29.965Z,94.96
2022-11-05T06:49:01.419Z,95.04
2022-11-05T06:49:32.736Z,95.17
2022-11-05T06:50:04.488Z,95.14
2022-11-05T06:50:35.802Z,94.60
2022-11-05T06:51:08.100Z,94.59
2022-11-05T06:51:39.403Z,94.87
2022-11-05T06:52:11.349Z,95.01
2022-11-05T06:52:42.699Z,95.16
2022-11-05T06:53:14.547Z,94.96
2022-11-05T06:53:45.983Z,94.84
2022-11-05T06:54:17.362Z,94.88
2022-11-05T06:54:49.161Z,95.04
2022-11-05T06:55:20.454Z,94.74
2022-11-05T06:55:52.527Z,94.76
2022-11-05T06:56:24.496Z,94.85
2022-11-05T06:56:55.799Z,94.63
2022-11-05T06:57:27.108Z,95.08
2022-11-05T06:57:58.689Z,94.84
2022-11-05T06:58:30.899Z,94.54
2022-11-05T06:59:02.232Z,94.77
2022-11-05T06:59:34.330Z,94.84
2022-11-05T07:00:08.183Z,94.77
2022-11-05T07:00:39.843Z,94.90
2022-11-05T07:01:11.364Z,94.51
2022-11-05T07:01:42.892Z,94.64
2022-11-05T07:02:14.387Z,94.46
2022-11-05T07:02:46.430Z,94.46
2022-11-05T07:03:17.770Z,94.35
2022-11-05T07:03:49.563Z,94.55
2022-11-05T07:04:20.871Z,94.12
2022-11-05T07:04:52.171Z,94.13
2022-11-05T07:05:23.662Z,94.63
2022-11-05T07:05:57.018Z,94.12
2022-11-05T07:06:31.893Z,94.13
2022-11-05T07:07:05.648Z,94.17
2022-11-05T07:07:38.002Z,94.59
2022-11-05T07:08:09.311Z,94.16
2022-11-05T07:08:40.718Z,93.97
2022-11-05T07:09:12.056Z,94.06
2022-11-05T07:09:44.663Z,94.22
2022-11-05T07:10:18.640Z,94.07
2022-11-05T07:10:50.002Z,94.38
2022-11-05T07:11:21.541Z,94.11
2022-11-05T07:11:52.923Z,94.42
2022-11-05T07:12:24.255Z,94.63
2022-11-05T07:12:55.621Z,94.51
2022-11-05T07:13:27.318Z,94.25
2022-11-05T07:13:58.865Z,94.46
2022-11-05T07:14:30.192Z,95.07
2022-11-05T07:15:01.597Z,94.45
2022-11-05T07:15:32.951Z,94.73
2022-11-05T07:16:04.565Z,94.74
2022-11-05T07:16:35.892Z,94.97
2022-11-05T07:17:07.319Z,94.76
2022-11-05T07:17:39.602Z,95.08
2022-11-05T07:18:10.943Z,94.95
2022-11-05T07:18:42.308Z,94.84
2022-11-05T07:19:13.828Z,94.89
2022-11-05T07:19:45.180Z,95.10
2022-11-05T07:20:16.534Z,95.21
2022-11-05T07:20:48.840Z,94.94
2022-11-05T07:21:20.241Z,95.20
2022-11-05T07:21:52.529Z,94.95
2022-11-05T07:22:23.855Z,95.23
2022-11-05T07:23:06.389Z,95.29
2022-11-05T07:23:37.899Z,95.17
2022-11-05T07:24:09.200Z,95.38
2022-11-05T07:24:40.580Z,95.35
2022-11-05T07:25:11.961Z,95.58
2022-11-05T07:25:43.665Z,95.27
2022-11-05T07:26:14.999Z,95.54
2022-11-05T07:26:46.332Z,95.50
2022-11-05T07:27:17.716Z,95.70
2022-11-05T07:27:49.063Z,95.42
2022-11-05T07:28:20.601Z,95.57
2022-11-05T07:28:52.098Z,95.71
2022-11-05T07:29:23.561Z,95.65
2022-11-05T07:29:54.880Z,95.39
2022-11-05T07:30:27.042Z,95.76
2022-11-05T07:30:59.279Z,95.23
2022-11-05T07:31:30.696Z,95.50
2022-11-05T07:32:02.029Z,95.06
2022-11-05T07:32:40.426Z,95.55
2022-11-05T07:33:12.340Z,95.37
2022-11-05T07:33:44.172Z,95.87
2022-11-05T07:34:15.735Z,95.80
2022-11-05T07:34:47.328Z,95.42
2022-11-05T07:35:18.682Z,95.91
2022-11-05T07:35:50.004Z,95.80
2022-11-05T07:36:21.476Z,95.77
2022-11-05T07:36:52.956Z,95.56
2022-11-05T07:37:24.505Z,95.75
2022-11-05T07:37:56.320Z,95.37
2022-11-05T07:38:27.692Z,95.79
2022-11-05T07:39:00.538Z,95.56
2022-11-05T07:39:32.067Z,95.54
2022-11-05T07:40:03.692Z,95.79
2022-11-05T07:40:35.118Z,95.77
2022-11-05T07:41:06.575Z,95.49
2022-11-05T07:41:37.907Z,95.50
2022-11-05T07:42:13.393Z,95.92
2022-11-05T07:42:46.313Z,95.75
2022-11-05T07:43:17.823Z,95.82
2022-11-05T07:43:49.326Z,95.82